createdAt,value
2023-05-25T00:01:10.032Z,52.54
2023-05-25T00:03:43.949Z,52.54
2023-05-25T00:06:16.226Z,52.60
2023-05-25T00:08:55.567Z,52.64
2023-05-25T00:11:31.698Z,52.54
2023-05-25T00:14:03.960Z,52.65
2023-05-25T00:16:40.714Z,52.60
2023-05-25T00:19:13.234Z,52.72
2023-05-25T00:21:50.457Z,52.76
2023-05-25T00:24:22.782Z,52.93
2023-05-25T00:26:55.014Z,52.85
2023-05-25T00:29:27.296Z,52.74
2023-05-25T00:32:02.637Z,52.77
2023-05-25T00:34:36.343Z,52.81
2023-05-25T00:37:08.634Z,52.87
2023-05-25T00:39:44.667Z,53.01
2023-05-25T00:42:17.136Z,52.91
2023-05-25T00:44:51.872Z,52.89
2023-05-25T00:47:24.683Z,52.95
2023-05-25T00:49:58.540Z,52.96
2023-05-25T00:52:31.865Z,52.89
2023-05-25T00:55:06.800Z,52.94
2023-05-25T00:57:43.688Z,52.99
2023-05-25T01:00:16.921Z,52.75
2023-05-25T01:02:53.117Z,52.92
2023-05-25T01:05:29.309Z,53.07
2023-05-25T01:08:04.118Z,53.14
2023-05-25T01:10:38.953Z,53.05
2023-05-25T01:13:13.374Z,53.27
2023-05-25T01:15:47.078Z,53.32
2023-05-25T01:18:20.434Z,53.16
2023-05-25T01:20:57.100Z,53.29
2023-05-25T01:23:38.469Z,53.23
2023-05-25T01:26:13.635Z,53.17
2023-05-25T01:29:18.075Z,53.38
2023-05-25T01:31:51.322Z,53.26
2023-05-25T01:34:26.950Z,53.09
2023-05-25T01:36:59.559Z,53.45
2023-05-25T01:39:44.536Z,53.37
2023-05-25T01:42:16.965Z,53.52
2023-05-25T01:44:52.460Z,53.31
2023-05-25T01:47:31.364Z,53.28
2023-05-25T01:50:17.314Z,53.43
2023-05-25T01:52:55.656Z,53.18
2023-05-25T01:55:39.449Z,53.53
2023-05-25T01:58:15.399Z,53.31
2023-05-25T02:00:49.595Z,53.33
2023-05-25T02:03:21.909Z,53.36
2023-05-25T02:05:59.425Z,53.26
2023-05-25T02:08:33.238Z,53.11
2023-05-25T02:11:05.629Z,53.31
2023-05-25T02:13:37.969Z,53.36
2023-05-25T02:16:10.253Z,53.21
2023-05-25T02:18:44.894Z,53.51
2023-05-25T02:21:17.209Z,53.23
2023-05-25T02:23:54.191Z,53.19
2023-05-25T02:26:26.799Z,53.50
2023-05-25T02:28:59.452Z,53.48
2023-05-25T02:31:33.287Z,53.62
2023-05-25T02:34:06.560Z,53.52
2023-05-25T02:36:39.542Z,53.43
2023-05-25T02:39:18.694Z,53.56
2023-05-25T02:41:51.680Z,53.59
2023-05-25T02:44:28.069Z,53.51
2023-05-25T02:47:01.003Z,53.46
2023-05-25T02:49:38.016Z,53.39
2023-05-25T02:52:10.400Z,53.63
2023-05-25T02:54:49.869Z,53.51
2023-05-25T02:57:52.868Z,53.28
2023-05-25T03:00:44.857Z,53.71
2023-05-25T03:03:17.526Z,53.40
2023-05-25T03:05:50.512Z,53.33
2023-05-25T03:08:22.883Z,53.66
2023-05-25T03:10:55.197Z,53.66
2023-05-25T03:13:27.318Z,53.63
2023-05-25T03:15:59.495Z,53.58
2023-05-25T03:18:34.750Z,53.59
2023-05-25T03:21:06.910Z,53.67
2023-05-25T03:23:41.275Z,53.57
2023-05-25T03:26:14.498Z,53.71
2023-05-25T03:28:50.990Z,53.72
2023-05-25T03:31:24.376Z,53.82
2023-05-25T03:33:56.613Z,53.44
2023-05-25T03:36:31.002Z,53.76
2023-05-25T03:39:15.657Z,53.64
2023-05-25T03:41:48.813Z,53.75
2023-05-25T03:44:29.066Z,53.40
2023-05-25T03:47:01.371Z,53.89
2023-05-25T03:49:35.426Z,53.42
2023-05-25T03:52:07.876Z,53.72
2023-05-25T03:54:39.979Z,53.48
2023-05-25T03:57:12.417Z,53.70
2023-05-25T03:59:44.983Z,53.49
2023-05-25T04:02:17.214Z,53.44
2023-05-25T04:04:52.397Z,53.67
2023-05-25T04:07:24.568Z,53.80
2023-05-25T04:09:59.651Z,53.71
2023-05-25T04:12:32.482Z,53.68
2023-05-25T04:15:14.247Z,53.57
2023-05-25T04:17:59.661Z,53.48
2023-05-25T04:20:32.027Z,53.83
2023-05-25T04:23:04.954Z,53.80
2023-05-25T04:25:42.414Z,53.84
2023-05-25T04:28:15.601Z,53.49
2023-05-25T04:30:57.251Z,53.68
2023-05-25T04:33:56.284Z,53.68
2023-05-25T04:36:38.739Z,53.63
2023-05-25T04:39:15.949Z,53.50
2023-05-25T04:41:53.523Z,53.67
2023-05-25T04:44:25.860Z,53.56
2023-05-25T04:47:02.515Z,53.88
2023-05-25T04:49:38.390Z,53.80
2023-05-25T04:52:14.432Z,53.88
2023-05-25T04:54:46.935Z,53.64
2023-05-25T04:57:20.911Z,53.68
2023-05-25T04:59:55.019Z,53.91
2023-05-25T05:02:28.070Z,53.59
2023-05-25T05:05:00.307Z,53.72
2023-05-25T05:07:33.209Z,53.61
2023-05-25T05:10:06.300Z,53.60
2023-05-25T05:12:40.067Z,53.91
2023-05-25T05:15:13.384Z,53.59
2023-05-25T05:17:47.765Z,54.01
2023-05-25T05:20:38.457Z,53.49
2023-05-25T05:23:14.901Z,53.76
2023-05-25T05:25:47.324Z,53.47
2023-05-25T05:28:20.548Z,54.08
2023-05-25T05:30:53.364Z,53.48
2023-05-25T05:33:26.015Z,53.61
2023-05-25T05:35:59.986Z,53.85
2023-05-25T05:38:32.615Z,53.76
2023-05-25T05:41:08.148Z,53.66
2023-05-25T05:44:06.021Z,53.58
2023-05-25T05:47:16.892Z,53.96
2023-05-25T05:49:49.240Z,53.72
2023-05-25T05:52:22.384Z,53.73
2023-05-25T05:54:55.166Z,53.80
2023-05-25T05:57:28.632Z,53.65
2023-05-25T06:00:05.259Z,53.69
2023-05-25T06:02:48.885Z,53.97
2023-05-25T06:05:25.653Z,53.56
2023-05-25T06:08:00.029Z,53.57
2023-05-25T06:10:46.656Z,53.74
2023-05-25T06:13:19.871Z,53.86
2023-05-25T06:15:52.828Z,53.71
2023-05-25T06:18:29.215Z,53.74
2023-05-25T06:21:04.300Z,53.56
2023-05-25T06:23:39.339Z,53.55
2023-05-25T06:26:15.267Z,53.38
2023-05-25T06:28:49.139Z,53.53
2023-05-25T06:31:22.549Z,53.53
2023-05-25T06:34:00.997Z,53.56
2023-05-25T06:36:33.411Z,53.56
2023-05-25T06:39:09.796Z,53.56
2023-05-25T06:41:42.830Z,53.61
2023-05-25T06:44:15.154Z,53.85
2023-05-25T06:46:56.075Z,53.50
2023-05-25T06:49:28.652Z,53.83
2023-05-25T06:52:14.905Z,53.39
2023-05-25T06:54:47.056Z,53.54
2023-05-25T06:57:19.339Z,53.92
2023-05-25T06:59:51.658Z,53.52
2023-05-25T07:02:27.960Z,54.01
2023-05-25T07:05:00.992Z,53.61
2023-05-25T07:07:33.654Z,53.62
2023-05-25T07:10:06.312Z,53.50
2023-05-25T07:12:38.601Z,53.42
2023-05-25T07:15:11.315Z,53.40
2023-05-25T07:17:43.657Z,53.62
2023-05-25T07:20:17.364Z,53.81
2023-05-25T07:27:10.350Z,53.16
2023-05-25T07:29:43.329Z,53.25
2023-05-25T07:32:49.189Z,53.22
2023-05-25T07:35:25.059Z,53.34
2023-05-25T07:38:01.746Z,53.15
2023-05-25T07:40:37.007Z,53.11
2023-05-25T07:43:09.412Z,53.07
2023-05-25T07:45:42.809Z,52.89
2023-05-25T07:48:15.265Z,53.20
2023-05-25T07:50:47.518Z,53.16
2023-05-25T07:53:19.883Z,53.04
2023-05-25T07:55:53.273Z,53.03
2023-05-25T07:58:25.644Z,53.14
2023-05-25T08:00:57.858Z,52.95
2023-05-25T08:03:47.333Z,53.31
2023-05-25T08:06:22.509Z,53.03
2023-05-25T08:08:54.932Z,52.96
2023-05-25T08:11:27.842Z,52.87
2023-05-25T08:14:00.681Z,53.11
2023-05-25T08:16:33.410Z,52.80
2023-05-25T08:19:05.977Z,53.00
2023-05-25T08:21:39.827Z,52.67
2023-05-25T08:24:12.260Z,52.73
2023-05-25T08:29:25.384Z,53.07
2023-05-25T08:31:57.829Z,52.70
2023-05-25T08:34:30.418Z,52.83
2023-05-25T08:37:03.512Z,53.06
2023-05-25T08:39:36.225Z,52.52
2023-05-25T08:42:08.821Z,52.58
2023-05-25T08:44:41.675Z,52.89
2023-05-25T08:47:15.415Z,52.63
2023-05-25T08:49:49.010Z,52.59
2023-05-25T08:52:25.246Z,52.94
2023-05-25T08:55:01.932Z,52.56
2023-05-25T08:57:57.910Z,52.63
2023-05-25T09:00:34.707Z,52.61
2023-05-25T09:03:10.764Z,52.79
2023-05-25T09:06:14.044Z,52.68
2023-05-25T09:09:14.924Z,52.45
2023-05-25T09:11:47.804Z,52.76
2023-05-25T09:14:20.111Z,52.53
2023-05-25T09:17:02.162Z,52.21
2023-05-25T09:19:36.957Z,52.03
2023-05-25T09:22:16.613Z,52.24
2023-05-25T09:24:56.157Z,52.16
2023-05-25T09:27:29.171Z,52.14
2023-05-25T09:30:02.413Z,52.17
2023-05-25T09:32:38.914Z,52.07
2023-05-25T09:35:12.708Z,51.90
2023-05-25T09:37:45.752Z,51.80
2023-05-25T09:40:19.631Z,51.60
2023-05-25T09:42:52.193Z,51.72
2023-05-25T09:45:25.453Z,51.77
2023-05-25T09:47:58.648Z,51.65
2023-05-25T09:50:31.063Z,51.77
2023-05-25T09:53:04.245Z,51.79
2023-05-25T09:55:52.156Z,51.79
2023-05-25T09:58:28.135Z,51.63
2023-05-25T10:03:33.437Z,51.37
2023-05-25T10:06:05.914Z,51.51
2023-05-25T10:08:38.176Z,51.20
2023-05-25T10:11:11.972Z,51.35
2023-05-25T10:13:44.945Z,51.31
2023-05-25T10:16:18.403Z,51.27
2023-05-25T10:19:04.203Z,51.27
2023-05-25T10:21:38.141Z,51.06
2023-05-25T10:24:15.073Z,51.32
2023-05-25T10:26:49.417Z,51.24
2023-05-25T10:29:22.229Z,51.12
2023-05-25T10:31:54.855Z,51.36
2023-05-25T10:34:27.315Z,51.01
2023-05-25T10:36:59.791Z,51.00
2023-05-25T10:39:33.042Z,50.98
2023-05-25T10:42:06.215Z,51.02
2023-05-25T10:44:39.269Z,51.12
2023-05-25T10:47:12.130Z,51.07
2023-05-25T10:50:01.936Z,50.85
2023-05-25T10:52:34.656Z,50.77
2023-05-25T10:55:07.441Z,50.88
2023-05-25T10:57:39.600Z,50.76
2023-05-25T11:00:13.703Z,51.00
2023-05-25T11:02:56.284Z,50.80
2023-05-25T11:05:32.651Z,50.58
2023-05-25T11:08:07.089Z,50.62
2023-05-25T11:10:50.039Z,50.57
2023-05-25T11:13:34.019Z,50.45
2023-05-25T11:16:24.319Z,50.80
2023-05-25T11:19:01.476Z,50.54
2023-05-25T11:21:36.884Z,50.63
2023-05-25T11:24:13.338Z,50.72
2023-05-25T11:26:58.794Z,50.57
2023-05-25T11:29:31.744Z,50.75
2023-05-25T11:32:04.344Z,50.47
2023-05-25T11:34:37.232Z,50.38
2023-05-25T11:37:11.713Z,50.49
2023-05-25T11:39:54.086Z,50.38
2023-05-25T11:42:26.750Z,50.45
2023-05-25T11:45:02.725Z,50.52
2023-05-25T11:47:39.065Z,50.38
2023-05-25T11:50:17.454Z,50.47
2023-05-25T11:52:51.330Z,50.52
2023-05-25T11:55:23.657Z,50.36
2023-05-25T11:57:59.672Z,50.28
2023-05-25T12:00:33.331Z,50.23
2023-05-25T12:03:05.832Z,50.45
2023-05-25T12:05:38.874Z,50.19
2023-05-25T12:08:12.116Z,50.41
2023-05-25T12:10:52.267Z,50.38
2023-05-25T12:13:24.560Z,50.27
2023-05-25T12:16:01.953Z,50.17
2023-05-25T12:18:35.253Z,50.12
2023-05-25T12:21:10.305Z,50.13
2023-05-25T12:23:42.436Z,50.09
2023-05-25T12:26:16.390Z,50.35
2023-05-25T12:29:04.593Z,50.05
2023-05-25T12:31:41.570Z,49.97
2023-05-25T12:34:20.801Z,50.10
2023-05-25T12:36:54.730Z,50.20
2023-05-25T12:39:29.887Z,49.87
2023-05-25T12:42:03.001Z,49.98
2023-05-25T12:44:37.493Z,49.98
2023-05-25T12:47:11.610Z,49.84
2023-05-25T12:49:47.239Z,49.94
2023-05-25T12:52:55.319Z,49.97
2023-05-25T12:55:30.415Z,50.13
2023-05-25T12:58:04.725Z,49.87
2023-05-25T13:00:38.513Z,49.90
2023-05-25T13:03:10.719Z,49.84
2023-05-25T13:05:45.193Z,49.85
2023-05-25T13:08:17.524Z,49.89
2023-05-25T13:10:51.171Z,49.77
2023-05-25T13:13:25.111Z,49.57
2023-05-25T13:15:58.488Z,49.87
2023-05-25T13:18:31.319Z,49.95
2023-05-25T13:21:03.735Z,49.82
2023-05-25T13:23:36.638Z,49.61
2023-05-25T13:26:08.876Z,49.75
2023-05-25T13:28:41.134Z,49.82
2023-05-25T13:31:13.269Z,49.61
2023-05-25T13:33:45.731Z,49.78
2023-05-25T13:36:19.198Z,49.77
2023-05-25T13:38:51.644Z,49.71
2023-05-25T13:41:24.037Z,49.71
2023-05-25T13:43:57.559Z,49.63
2023-05-25T13:46:34.763Z,49.76
2023-05-25T13:49:08.536Z,49.68
2023-05-25T13:51:41.508Z,49.75
2023-05-25T13:54:14.900Z,49.67
2023-05-25T13:56:47.382Z,49.43
2023-05-25T13:59:19.683Z,49.67
2023-05-25T14:01:53.604Z,49.69
2023-05-25T14:04:27.682Z,49.61
2023-05-25T14:07:00.071Z,49.46
2023-05-25T14:09:33.060Z,49.41
2023-05-25T14:12:07.740Z,49.74
2023-05-25T14:14:39.938Z,49.41
2023-05-25T14:17:12.273Z,49.42
2023-05-25T14:19:47.564Z,49.37
2023-05-25T14:22:19.765Z,49.46
2023-05-25T14:24:51.963Z,49.43
2023-05-25T14:27:24.261Z,49.32
2023-05-25T14:29:56.329Z,49.46
2023-05-25T14:32:28.750Z,49.30
2023-05-25T14:35:00.908Z,49.34
2023-05-25T14:37:33.263Z,49.47
2023-05-25T14:40:06.219Z,49.37
2023-05-25T14:42:38.550Z,49.41
2023-05-25T14:45:12.012Z,49.33
2023-05-25T14:47:45.108Z,49.34
2023-05-25T14:50:17.346Z,49.34
2023-05-25T14:52:49.905Z,49.35
2023-05-25T14:55:22.195Z,49.17
2023-05-25T14:57:54.257Z,49.35
2023-05-25T15:00:26.449Z,49.15
2023-05-25T15:02:58.793Z,49.23
2023-05-25T15:05:32.410Z,49.23
2023-05-25T15:08:04.610Z,49.18
2023-05-25T15:10:36.800Z,49.14
2023-05-25T15:13:09.415Z,49.04
2023-05-25T15:15:45.458Z,49.21
2023-05-25T15:18:18.139Z,49.13
2023-05-25T15:20:53.165Z,49.17
2023-05-25T15:23:25.577Z,49.11
2023-05-25T15:25:57.822Z,49.11
2023-05-25T15:28:30.740Z,48.92
2023-05-25T15:31:04.512Z,49.04
2023-05-25T15:33:53.892Z,48.84
2023-05-25T15:36:28.785Z,48.98
2023-05-25T15:39:01.818Z,49.11
2023-05-25T15:41:35.117Z,48.75
2023-05-25T15:44:12.528Z,48.97
2023-05-25T15:46:46.567Z,49.02
2023-05-25T15:49:19.610Z,48.87
2023-05-25T15:51:53.400Z,48.97
2023-05-25T15:54:25.666Z,48.96
2023-05-25T15:56:58.013Z,49.04
2023-05-25T15:59:30.264Z,48.95
2023-05-25T16:02:02.743Z,48.98
2023-05-25T16:04:35.392Z,48.74
2023-05-25T16:07:07.727Z,48.86
2023-05-25T16:09:49.517Z,48.98
2023-05-25T16:12:24.841Z,48.75
2023-05-25T16:14:57.515Z,48.88
2023-05-25T16:17:30.033Z,48.69
2023-05-25T16:20:02.376Z,48.84
2023-05-25T16:22:34.575Z,48.65
2023-05-25T16:25:07.181Z,48.79
2023-05-25T16:27:39.491Z,48.71
2023-05-25T16:30:13.525Z,48.28
2023-05-25T16:32:48.003Z,48.43
2023-05-25T16:35:23.274Z,48.11
2023-05-25T16:38:00.371Z,48.16
2023-05-25T16:40:33.694Z,48.00
2023-05-25T16:43:06.097Z,48.19
2023-05-25T16:45:39.470Z,48.12
2023-05-25T16:48:11.827Z,48.00
2023-05-25T16:50:44.175Z,47.95
2023-05-25T16:53:16.535Z,47.87
2023-05-25T16:55:48.754Z,47.83
2023-05-25T16:58:24.129Z,47.70
2023-05-25T17:00:56.333Z,47.63
2023-05-25T17:03:28.636Z,47.21
2023-05-25T17:06:00.954Z,47.37
2023-05-25T17:08:33.740Z,47.33
2023-05-25T17:11:06.089Z,47.60
2023-05-25T17:13:38.446Z,47.63
2023-05-25T17:16:10.690Z,47.60
2023-05-25T17:18:42.912Z,47.66
2023-05-25T17:21:15.038Z,47.40
2023-05-25T17:23:48.720Z,47.62
2023-05-25T17:26:26.110Z,47.62
2023-05-25T17:29:00.930Z,47.63
2023-05-25T17:31:35.233Z,47.45
2023-05-25T17:34:07.522Z,47.76
2023-05-25T17:36:39.786Z,47.48
2023-05-25T17:39:15.179Z,47.68
2023-05-25T17:41:49.762Z,47.73
2023-05-25T17:44:24.552Z,47.86
2023-05-25T17:46:57.621Z,47.51
2023-05-25T17:49:32.271Z,47.69
2023-05-25T17:52:07.731Z,47.83
2023-05-25T17:54:40.022Z,47.68
2023-05-25T17:57:13.490Z,47.85
2023-05-25T17:59:45.889Z,47.91
2023-05-25T18:02:19.050Z,47.97
2023-05-25T18:04:51.444Z,47.88
2023-05-25T18:07:26.799Z,48.11
2023-05-25T18:10:00.486Z,47.98
2023-05-25T18:12:32.978Z,48.24
2023-05-25T18:15:05.454Z,48.02
2023-05-25T18:17:37.836Z,48.17
2023-05-25T18:20:11.568Z,48.09
2023-05-25T18:22:43.888Z,48.08
2023-05-25T18:25:18.358Z,48.19
2023-05-25T18:27:50.731Z,48.31
2023-05-25T18:30:23.023Z,48.16
2023-05-25T18:32:57.449Z,48.32
2023-05-25T18:35:31.729Z,48.24
2023-05-25T18:38:06.666Z,48.26
2023-05-25T18:40:39.996Z,48.18
2023-05-25T18:43:12.436Z,48.24
2023-05-25T18:45:46.395Z,48.27
2023-05-25T18:48:20.414Z,48.21
2023-05-25T18:50:54.047Z,48.38
2023-05-25T18:53:26.335Z,48.33
2023-05-25T18:55:59.848Z,48.28
2023-05-25T18:58:32.149Z,48.47
2023-05-25T19:01:04.674Z,48.25
2023-05-25T19:03:36.886Z,48.50
2023-05-25T19:06:09.938Z,48.24
2023-05-25T19:08:42.418Z,48.38
2023-05-25T19:11:15.615Z,48.23
2023-05-25T19:13:48.289Z,48.28
2023-05-25T19:16:21.710Z,48.41
2023-05-25T19:18:54.106Z,48.46
2023-05-25T19:21:26.970Z,48.40
2023-05-25T19:24:01.342Z,48.41
2023-05-25T19:26:38.031Z,48.44
2023-05-25T19:29:10.382Z,48.33
2023-05-25T19:31:42.653Z,48.28
2023-05-25T19:34:15.162Z,48.44
2023-05-25T19:36:53.683Z,48.42
2023-05-25T19:39:32.386Z,48.65
2023-05-25T19:42:04.742Z,48.62
2023-05-25T19:44:36.889Z,48.64
2023-05-25T19:47:10.411Z,48.53
2023-05-25T19:49:42.911Z,48.72
2023-05-25T19:52:19.236Z,48.68
2023-05-25T19:54:53.233Z,48.81
2023-05-25T19:57:27.380Z,48.82
2023-05-25T20:00:01.391Z,48.84
2023-05-25T20:02:45.192Z,48.61
2023-05-25T20:05:19.069Z,48.98
2023-05-25T20:07:52.678Z,49.14
2023-05-25T20:10:25.485Z,48.88
2023-05-25T20:12:58.032Z,48.85
2023-05-25T20:15:30.216Z,49.25
2023-05-25T20:18:05.324Z,49.12
2023-05-25T20:20:37.671Z,48.85
2023-05-25T20:23:10.122Z,49.25
2023-05-25T20:25:42.388Z,49.05
2023-05-25T20:28:14.701Z,49.18
2023-05-25T20:30:47.089Z,49.42
2023-05-25T20:33:20.172Z,49.18
2023-05-25T20:35:52.436Z,49.12
2023-05-25T20:38:24.729Z,49.16
2023-05-25T20:40:59.537Z,49.46
2023-05-25T20:43:32.708Z,49.30
2023-05-25T20:46:07.242Z,49.52
2023-05-25T20:48:40.498Z,49.29
2023-05-25T20:51:14.125Z,49.38
2023-05-25T20:53:46.211Z,49.61
2023-05-25T20:56:18.880Z,49.50
2023-05-25T20:58:52.975Z,49.67
2023-05-25T21:01:25.983Z,49.52
2023-05-25T21:03:58.191Z,49.59
2023-05-25T21:06:32.753Z,49.23
2023-05-25T21:09:06.045Z,49.33
2023-05-25T21:11:38.236Z,49.79
2023-05-25T21:14:10.427Z,49.49
2023-05-25T21:16:43.050Z,49.91
2023-05-25T21:19:17.380Z,49.93
2023-05-25T21:21:50.960Z,49.90
2023-05-25T21:24:23.323Z,49.67
2023-05-25T21:26:58.187Z,49.83
2023-05-25T21:29:30.356Z,49.72
2023-05-25T21:32:03.090Z,49.91
2023-05-25T21:34:36.657Z,49.76
2023-05-25T21:37:09.199Z,49.93
2023-05-25T21:39:41.542Z,49.96
2023-05-25T21:42:13.922Z,49.76
2023-05-25T21:44:46.207Z,50.42
2023-05-25T21:47:18.398Z,50.21
2023-05-25T21:49:50.933Z,50.09
2023-05-25T21:52:26.213Z,50.13
2023-05-25T21:54:59.160Z,50.36
2023-05-25T21:57:31.803Z,50.07
2023-05-25T22:00:06.249Z,50.45
2023-05-25T22:02:44.821Z,50.53
2023-05-25T22:05:17.138Z,50.31
2023-05-25T22:07:52.996Z,50.20
2023-05-25T22:10:26.688Z,50.23
2023-05-25T22:12:58.967Z,50.50
2023-05-25T22:15:40.923Z,50.09
2023-05-25T22:18:18.109Z,50.44
2023-05-25T22:20:50.677Z,50.32
2023-05-25T22:23:23.024Z,50.46
2023-05-25T22:25:55.313Z,50.32
2023-05-25T22:28:27.491Z,50.39
2023-05-25T22:31:02.816Z,50.49
2023-05-25T22:33:34.982Z,50.65
2023-05-25T22:36:07.267Z,50.58
2023-05-25T22:38:41.256Z,50.46
2023-05-25T22:41:14.747Z,50.51
2023-05-25T22:43:46.848Z,50.45
2023-05-25T22:46:19.625Z,50.37
2023-05-25T22:48:56.372Z,50.54
2023-05-25T22:51:28.696Z,50.53
2023-05-25T22:54:01.121Z,50.39
2023-05-25T22:56:42.817Z,50.93
2023-05-25T22:59:15.091Z,50.80
2023-05-25T23:01:47.263Z,50.78
2023-05-25T23:04:19.642Z,50.72
2023-05-25T23:06:54.384Z,50.65
2023-05-25T23:09:26.548Z,50.78
2023-05-25T23:12:00.928Z,50.64
2023-05-25T23:14:35.757Z,51.16
2023-05-25T23:17:07.844Z,50.71
2023-05-25T23:19:44.803Z,50.89
2023-05-25T23:22:56.452Z,50.99
2023-05-25T23:25:33.098Z,50.91
2023-05-25T23:28:05.494Z,51.09
2023-05-25T23:30:39.025Z,50.91
2023-05-25T23:33:38.869Z,50.95
2023-05-25T23:36:11.070Z,50.80
2023-05-25T23:38:45.477Z,50.80
2023-05-25T23:41:17.738Z,51.00
2023-05-25T23:43:49.978Z,51.28
2023-05-25T23:46:22.325Z,50.96
2023-05-25T23:48:54.529Z,50.86
2023-05-25T23:51:28.028Z,51.30
2023-05-25T23:54:01.233Z,51.57
2023-05-25T23:56:34.871Z,51.16
2023-05-25T23:59:07.267Z,51.52
